createdAt,value
2022-10-06T00:00:06.113Z,101599.38
2022-10-06T00:02:37.480Z,101588.91
2022-10-06T00:05:06.363Z,101573.28
2022-10-06T00:07:36.804Z,101578.44
2022-10-06T00:10:07.567Z,101607.19
2022-10-06T00:12:44.404Z,101610.69
2022-10-06T00:15:15.176Z,101617.59
2022-10-06T00:17:43.902Z,101591.38
2022-10-06T00:20:13.324Z,101601.84
2022-10-06T00:22:48.106Z,101592.31
2022-10-06T00:25:18.189Z,101616.78
2022-10-06T00:27:51.219Z,101542.75
2022-10-06T00:30:23.045Z,101610.59
2022-10-06T00:32:57.967Z,101600.13
2022-10-06T00:35:26.934Z,101615.97
2022-10-06T00:37:56.190Z,101572.38
2022-10-06T00:40:25.223Z,101580.16
2022-10-06T00:42:55.970Z,101611.47
2022-10-06T00:45:40.922Z,101594.09
2022-10-06T00:48:23.380Z,101610.56
2022-10-06T00:50:58.070Z,101586.19
2022-10-06T00:53:32.660Z,101582.66
2022-10-06T00:56:01.039Z,101531.41
2022-10-06T00:58:30.052Z,101579.25
2022-10-06T01:01:00.161Z,101553.13
2022-10-06T01:03:55.804Z,101608.00
2022-10-06T01:06:24.260Z,101602.94
2022-10-06T01:08:53.897Z,101549.81
2022-10-06T01:11:22.493Z,101571.47
2022-10-06T01:13:51.204Z,101562.78
2022-10-06T01:16:25.888Z,101568.84
2022-10-06T01:18:56.807Z,101560.22
2022-10-06T01:21:34.589Z,101579.38
2022-10-06T01:24:04.863Z,101562.84
2022-10-06T01:26:36.779Z,101549.81
2022-10-06T01:29:05.680Z,101553.31
2022-10-06T01:31:37.701Z,101561.19
2022-10-06T01:34:06.777Z,101574.28
2022-10-06T01:36:35.437Z,101546.53
2022-10-06T01:39:04.158Z,101573.47
2022-10-06T01:41:34.789Z,101564.78
2022-10-06T01:44:04.134Z,101507.47
2022-10-06T01:46:33.006Z,101512.78
2022-10-06T01:49:01.765Z,101554.50
2022-10-06T01:51:30.817Z,101569.31
2022-10-06T01:53:59.838Z,101548.44
2022-10-06T01:56:28.435Z,101545.81
2022-10-06T01:58:57.074Z,101544.13
2022-10-06T02:01:25.786Z,101571.84
2022-10-06T02:03:55.734Z,101543.06
2022-10-06T02:06:24.543Z,101521.25
2022-10-06T02:08:55.919Z,101528.00
2022-10-06T02:11:24.621Z,101559.47
2022-10-06T02:13:53.428Z,101545.50
2022-10-06T02:16:23.054Z,101524.72
2022-10-06T02:18:51.695Z,101563.63
2022-10-06T02:21:23.358Z,101512.25
2022-10-06T02:23:52.534Z,101561.66
2022-10-06T02:26:21.337Z,101572.97
2022-10-06T02:28:51.440Z,101571.00
2022-10-06T02:31:25.178Z,101501.34
2022-10-06T02:33:54.137Z,101575.06
2022-10-06T02:36:25.095Z,101577.53
2022-10-06T02:38:53.801Z,101546.03
2022-10-06T02:41:22.723Z,101546.63
2022-10-06T02:43:54.323Z,101542.94
2022-10-06T02:46:24.822Z,101554.97
2022-10-06T02:48:54.506Z,101535.56
2022-10-06T02:51:23.879Z,101523.97
2022-10-06T02:53:52.887Z,101518.63
2022-10-06T02:56:26.517Z,101538.53
2022-10-06T02:58:55.259Z,101527.19
2022-10-06T03:01:29.610Z,101533.09
2022-10-06T03:04:08.022Z,101564.38
2022-10-06T03:06:36.936Z,101498.31
2022-10-06T03:09:10.925Z,101528.50
2022-10-06T03:11:43.780Z,101543.03
2022-10-06T03:14:21.631Z,101541.06
2022-10-06T03:16:52.616Z,101542.63
2022-10-06T03:19:25.426Z,101564.22
2022-10-06T03:21:55.506Z,101543.84
2022-10-06T03:24:32.294Z,101559.19
2022-10-06T03:27:02.963Z,101569.38
2022-10-06T03:29:32.067Z,101548.25
2022-10-06T03:32:00.919Z,101509.75
2022-10-06T03:34:30.072Z,101563.44
2022-10-06T03:37:00.957Z,101531.94
2022-10-06T03:39:30.359Z,101523.13
2022-10-06T03:41:58.999Z,101501.38
2022-10-06T03:44:28.018Z,101501.22
2022-10-06T03:46:56.431Z,101535.78
2022-10-06T03:49:25.038Z,101546.16
2022-10-06T03:51:55.198Z,101524.44
2022-10-06T03:54:28.261Z,101560.53
2022-10-06T03:56:57.678Z,101476.91
2022-10-06T03:59:29.765Z,101533.88
2022-10-06T04:01:59.631Z,101512.09
2022-10-06T04:04:32.339Z,101545.66
2022-10-06T04:07:04.509Z,101478.59
2022-10-06T04:09:33.062Z,101509.44
2022-10-06T04:12:02.868Z,101511.81
2022-10-06T04:14:34.949Z,101525.53
2022-10-06T04:17:04.380Z,101549.50
2022-10-06T04:19:36.308Z,101543.03
2022-10-06T04:22:05.193Z,101522.88
2022-10-06T04:24:34.816Z,101553.81
2022-10-06T04:27:22.248Z,101533.44
2022-10-06T04:30:11.535Z,101547.59
2022-10-06T04:32:40.979Z,101542.84
2022-10-06T04:35:09.639Z,101525.94
2022-10-06T04:37:38.641Z,101525.03
2022-10-06T04:40:07.817Z,101536.81
2022-10-06T04:42:38.290Z,101530.59
2022-10-06T04:45:11.282Z,101534.41
2022-10-06T04:47:41.275Z,101538.41
2022-10-06T04:50:11.144Z,101482.59
2022-10-06T04:52:50.313Z,101543.97
2022-10-06T04:55:19.033Z,101545.16
2022-10-06T04:57:47.824Z,101489.41
2022-10-06T05:00:26.362Z,101528.22
2022-10-06T05:02:58.122Z,101526.91
2022-10-06T05:05:26.665Z,101518.97
2022-10-06T05:07:56.927Z,101521.47
2022-10-06T05:10:25.684Z,101493.25
2022-10-06T05:12:54.163Z,101496.28
2022-10-06T05:15:22.883Z,101503.59
2022-10-06T05:17:51.247Z,101492.53
2022-10-06T05:20:23.521Z,101502.53
2022-10-06T05:22:53.034Z,101499.25
2022-10-06T05:25:21.488Z,101476.47
2022-10-06T05:27:50.112Z,101488.03
2022-10-06T05:30:18.854Z,101472.22
2022-10-06T05:32:51.142Z,101503.44
2022-10-06T05:35:19.913Z,101470.75
2022-10-06T05:37:48.686Z,101479.00
2022-10-06T05:40:17.338Z,101468.44
2022-10-06T05:42:46.069Z,101464.28
2022-10-06T05:45:14.821Z,101471.00
2022-10-06T05:47:43.633Z,101478.38
2022-10-06T05:50:15.114Z,101479.09
2022-10-06T05:52:43.531Z,101464.28
2022-10-06T05:55:12.204Z,101480.28
2022-10-06T05:57:40.817Z,101467.00
2022-10-06T06:00:09.865Z,101410.06
2022-10-06T06:02:41.367Z,101450.38
2022-10-06T06:05:12.176Z,101459.06
2022-10-06T06:07:41.467Z,101465.72
2022-10-06T06:10:10.682Z,101457.72
2022-10-06T06:12:39.209Z,101457.16
2022-10-06T06:15:46.526Z,101444.97
2022-10-06T06:18:15.052Z,101469.38
2022-10-06T06:20:43.827Z,101466.72
2022-10-06T06:23:12.757Z,101462.28
2022-10-06T06:25:41.379Z,101480.59
2022-10-06T06:28:10.266Z,101472.25
2022-10-06T06:30:39.293Z,101476.22
2022-10-06T06:33:07.926Z,101432.13
2022-10-06T06:35:37.701Z,101465.84
2022-10-06T06:38:12.471Z,101476.38
2022-10-06T06:40:41.903Z,101481.34
2022-10-06T06:43:13.805Z,101438.22
2022-10-06T06:46:04.910Z,101440.63
2022-10-06T06:49:05.055Z,101477.91
2022-10-06T06:51:40.953Z,101469.16
2022-10-06T06:54:11.274Z,101465.25
2022-10-06T06:56:43.160Z,101419.59
2022-10-06T06:59:14.359Z,101470.94
2022-10-06T07:01:47.937Z,101450.84
2022-10-06T07:04:22.169Z,101452.06
2022-10-06T07:06:57.983Z,101459.63
2022-10-06T07:09:32.133Z,101461.94
2022-10-06T07:12:05.194Z,101456.91
2022-10-06T07:14:36.354Z,101438.09
2022-10-06T07:17:27.337Z,101435.00
2022-10-06T07:20:14.406Z,101434.63
2022-10-06T07:23:01.726Z,101437.59
2022-10-06T07:25:30.618Z,101455.38
2022-10-06T07:28:04.588Z,101432.16
2022-10-06T07:30:40.538Z,101436.63
2022-10-06T07:33:18.850Z,101439.97
2022-10-06T07:35:48.990Z,101450.19
2022-10-06T07:38:25.249Z,101440.72
2022-10-06T07:43:48.182Z,101415.94
2022-10-06T07:46:19.829Z,101444.53
2022-10-06T07:48:55.747Z,101447.09
2022-10-06T07:51:28.026Z,101422.81
2022-10-06T07:53:58.704Z,101450.94
2022-10-06T07:56:45.101Z,101433.72
2022-10-06T07:59:13.605Z,101417.69
2022-10-06T08:01:42.336Z,101426.41
2022-10-06T08:04:11.560Z,101395.16
2022-10-06T08:06:40.820Z,101430.53
2022-10-06T08:09:09.524Z,101441.78
2022-10-06T08:11:38.181Z,101427.81
2022-10-06T08:14:06.983Z,101436.97
2022-10-06T08:16:35.662Z,101434.66
2022-10-06T08:19:05.087Z,101436.97
2022-10-06T08:21:38.987Z,101422.03
2022-10-06T08:24:08.320Z,101429.47
2022-10-06T08:26:37.043Z,101421.22
2022-10-06T08:29:05.704Z,101414.91
2022-10-06T08:31:34.805Z,101397.63
2022-10-06T08:34:05.052Z,101409.00
2022-10-06T08:36:35.237Z,101421.22
2022-10-06T08:39:03.815Z,101401.25
2022-10-06T08:41:53.780Z,101417.03
2022-10-06T08:44:40.024Z,101416.69
2022-10-06T08:47:20.896Z,101388.44
2022-10-06T08:49:55.721Z,101395.25
2022-10-06T08:52:48.099Z,101408.94
2022-10-06T08:55:35.244Z,101417.22
2022-10-06T08:58:32.485Z,101406.06
2022-10-06T09:01:10.272Z,101410.44
2022-10-06T09:03:39.783Z,101354.47
2022-10-06T09:06:19.496Z,101399.47
2022-10-06T09:08:59.416Z,101408.53
2022-10-06T09:11:46.602Z,101409.19
2022-10-06T09:14:29.040Z,101354.06
2022-10-06T09:17:03.376Z,101374.91
2022-10-06T09:19:54.934Z,101360.28
2022-10-06T09:22:24.597Z,101358.47
2022-10-06T09:24:59.067Z,101379.00
2022-10-06T09:27:34.841Z,101391.81
2022-10-06T09:30:05.616Z,101388.75
2022-10-06T09:32:35.408Z,101391.69
2022-10-06T09:35:21.085Z,101366.44
2022-10-06T09:38:08.579Z,101380.28
2022-10-06T09:40:39.459Z,101401.13
2022-10-06T09:43:28.966Z,101380.72
2022-10-06T09:46:18.479Z,101391.97
2022-10-06T09:48:47.020Z,101377.47
2022-10-06T09:51:18.108Z,101379.94
2022-10-06T09:54:16.761Z,101388.75
2022-10-06T09:56:47.907Z,101386.59
2022-10-06T09:59:44.357Z,101382.13
2022-10-06T10:02:41.762Z,101375.81
2022-10-06T10:05:24.418Z,101381.41
2022-10-06T10:08:23.838Z,101378.72
2022-10-06T10:11:37.354Z,101375.84
2022-10-06T10:14:18.040Z,101358.66
2022-10-06T10:16:52.356Z,101370.34
2022-10-06T10:19:28.550Z,101362.81
2022-10-06T10:21:57.136Z,101355.28
2022-10-06T10:24:59.904Z,101373.72
2022-10-06T10:27:41.819Z,101360.59
2022-10-06T10:30:12.376Z,101357.56
2022-10-06T10:32:53.145Z,101360.31
2022-10-06T10:35:24.475Z,101367.78
2022-10-06T10:38:15.904Z,101322.94
2022-10-06T10:41:07.683Z,101341.66
2022-10-06T10:43:48.561Z,101321.13
2022-10-06T10:46:29.704Z,101362.66
2022-10-06T10:49:18.860Z,101365.28
2022-10-06T10:51:53.655Z,101363.16
2022-10-06T10:54:31.654Z,101375.47
2022-10-06T10:57:00.476Z,101367.25
2022-10-06T10:59:45.773Z,101368.63
2022-10-06T11:02:18.983Z,101358.00
2022-10-06T11:04:55.555Z,101320.78
2022-10-06T11:07:47.155Z,101370.69
2022-10-06T11:10:29.258Z,101367.81
2022-10-06T11:13:29.904Z,101371.25
2022-10-06T11:16:20.014Z,101358.41
2022-10-06T11:19:06.623Z,101365.53
2022-10-06T11:21:57.414Z,101366.72
2022-10-06T11:24:38.356Z,101373.03
2022-10-06T11:27:18.983Z,101384.19
2022-10-06T11:30:00.874Z,101356.00
2022-10-06T11:32:41.227Z,101374.75
2022-10-06T11:35:23.932Z,101347.03
2022-10-06T11:38:25.691Z,101369.94
2022-10-06T11:41:16.698Z,101368.66
2022-10-06T11:43:48.277Z,101361.88
2022-10-06T11:46:22.982Z,101352.66
2022-10-06T11:48:51.942Z,101339.56
2022-10-06T11:51:26.912Z,101352.41
2022-10-06T11:54:00.084Z,101329.41
2022-10-06T11:56:34.564Z,101352.09
2022-10-06T11:59:14.687Z,101351.69
2022-10-06T12:01:48.661Z,101353.56
2022-10-06T12:04:23.441Z,101345.13
2022-10-06T12:06:55.803Z,101356.97
2022-10-06T12:09:31.741Z,101351.28
2022-10-06T12:12:25.596Z,101353.78
2022-10-06T12:18:40.892Z,101354.91
2022-10-06T12:21:31.301Z,101352.50
2022-10-06T12:24:06.325Z,101338.72
2022-10-06T12:26:56.586Z,101349.31
2022-10-06T12:29:37.456Z,101340.75
2022-10-06T12:32:23.537Z,101315.31
2022-10-06T12:35:00.263Z,101345.84
2022-10-06T12:37:51.497Z,101342.72
2022-10-06T12:40:47.762Z,101345.63
2022-10-06T12:43:16.579Z,101348.28
2022-10-06T12:46:18.662Z,101346.75
2022-10-06T12:49:09.453Z,101338.16
2022-10-06T12:51:47.753Z,101339.38
2022-10-06T12:54:45.395Z,101352.00
2022-10-06T12:57:21.412Z,101329.66
2022-10-06T12:59:50.701Z,101332.47
2022-10-06T13:02:29.398Z,101344.97
2022-10-06T13:05:12.552Z,101349.72
2022-10-06T13:08:03.533Z,101356.06
2022-10-06T13:10:35.835Z,101356.34
2022-10-06T13:13:25.034Z,101342.88
2022-10-06T13:16:01.169Z,101271.28
2022-10-06T13:18:29.733Z,101339.50
2022-10-06T13:20:59.832Z,101361.50
2022-10-06T13:23:34.023Z,101327.97
2022-10-06T13:26:05.074Z,101362.97
2022-10-06T13:28:49.402Z,101365.94
2022-10-06T13:31:20.529Z,101364.38
2022-10-06T13:34:13.536Z,101345.47
2022-10-06T13:36:44.909Z,101351.97
2022-10-06T13:39:22.173Z,101329.44
2022-10-06T13:41:56.635Z,101365.81
2022-10-06T13:44:39.075Z,101366.06
2022-10-06T13:47:16.319Z,101349.53
2022-10-06T13:50:02.738Z,101341.91
2022-10-06T13:52:35.071Z,101361.75
2022-10-06T13:55:06.735Z,101343.56
2022-10-06T13:57:48.586Z,101357.56
2022-10-06T14:00:31.876Z,101347.28
2022-10-06T14:03:06.820Z,101360.44
2022-10-06T14:05:37.578Z,101343.91
2022-10-06T14:08:12.354Z,101357.91
2022-10-06T14:11:00.438Z,101353.38
2022-10-06T14:13:42.944Z,101350.56
2022-10-06T14:16:21.376Z,101342.16
2022-10-06T14:19:00.715Z,101346.44
2022-10-06T14:21:35.755Z,101351.78
2022-10-06T14:24:29.214Z,101355.59
2022-10-06T14:27:03.544Z,101322.56
2022-10-06T14:29:33.925Z,101345.28
2022-10-06T14:32:17.056Z,101352.03
2022-10-06T14:34:45.761Z,101332.84
2022-10-06T14:37:16.245Z,101352.16
2022-10-06T14:39:46.413Z,101321.09
2022-10-06T14:42:16.303Z,101339.09
2022-10-06T14:44:45.594Z,101333.19
2022-10-06T14:47:14.296Z,101310.09
2022-10-06T14:49:43.155Z,101333.72
2022-10-06T14:52:12.758Z,101289.09
2022-10-06T14:54:43.575Z,101313.41
2022-10-06T14:57:12.272Z,101335.22
2022-10-06T14:59:40.954Z,101329.22
2022-10-06T15:02:11.714Z,101329.56
2022-10-06T15:04:40.506Z,101339.03
2022-10-06T15:07:27.276Z,101314.28
2022-10-06T15:09:56.355Z,101337.63
2022-10-06T15:12:25.073Z,101295.41
2022-10-06T15:14:54.115Z,101339.56
2022-10-06T15:17:23.654Z,101332.72
2022-10-06T15:19:52.366Z,101277.75
2022-10-06T15:22:21.154Z,101322.06
2022-10-06T15:24:52.092Z,101318.69
2022-10-06T15:30:08.494Z,101323.69
2022-10-06T15:32:37.136Z,101310.78
2022-10-06T15:35:06.017Z,101337.06
2022-10-06T15:37:34.635Z,101314.63
2022-10-06T15:40:06.318Z,101272.47
2022-10-06T15:42:37.203Z,101300.19
2022-10-06T15:45:07.652Z,101313.44
2022-10-06T15:47:36.196Z,101311.69
2022-10-06T15:50:05.401Z,101303.00
2022-10-06T15:52:35.343Z,101317.06
2022-10-06T15:55:04.295Z,101306.72
2022-10-06T15:57:32.734Z,101300.69
2022-10-06T16:00:01.456Z,101324.41
2022-10-06T16:02:41.141Z,101327.28
2022-10-06T16:05:10.100Z,101300.66
2022-10-06T16:07:38.965Z,101327.78
2022-10-06T16:10:08.454Z,101288.06
2022-10-06T16:12:36.995Z,101309.00
2022-10-06T16:15:06.108Z,101299.50
2022-10-06T16:17:35.015Z,101322.09
2022-10-06T16:20:05.930Z,101295.09
2022-10-06T16:22:34.475Z,101331.59
2022-10-06T16:25:04.944Z,101320.38
2022-10-06T16:27:36.215Z,101309.78
2022-10-06T16:30:05.190Z,101296.69
2022-10-06T16:32:33.712Z,101329.66
2022-10-06T16:35:02.360Z,101319.91
2022-10-06T16:37:30.887Z,101313.16
2022-10-06T16:39:59.553Z,101316.28
2022-10-06T16:42:28.198Z,101300.91
2022-10-06T16:44:56.823Z,101302.28
2022-10-06T16:47:25.464Z,101306.59
2022-10-06T16:49:54.014Z,101308.50
2022-10-06T16:52:22.796Z,101305.03
2022-10-06T16:54:51.285Z,101298.94
2022-10-06T16:57:20.063Z,101291.25
2022-10-06T16:59:48.737Z,101292.78
2022-10-06T17:02:17.328Z,101293.78
2022-10-06T17:04:46.015Z,101286.91
2022-10-06T17:07:14.815Z,101306.75
2022-10-06T17:09:55.990Z,101291.28
2022-10-06T17:12:30.390Z,101287.09
2022-10-06T17:14:59.152Z,101294.09
2022-10-06T17:17:30.395Z,101287.44
2022-10-06T17:19:59.116Z,101241.63
2022-10-06T17:22:28.096Z,101284.91
2022-10-06T17:24:56.695Z,101270.22
2022-10-06T17:27:29.295Z,101262.31
2022-10-06T17:29:57.895Z,101261.66
2022-10-06T17:32:26.633Z,101246.97
2022-10-06T17:34:56.047Z,101266.22
2022-10-06T17:37:24.697Z,101273.13
2022-10-06T17:39:53.473Z,101263.47
2022-10-06T17:42:21.973Z,101265.28
2022-10-06T17:44:50.515Z,101270.59
2022-10-06T17:47:22.098Z,101268.84
2022-10-06T17:49:50.933Z,101258.59
2022-10-06T17:52:24.094Z,101272.41
2022-10-06T17:54:55.135Z,101276.03
2022-10-06T17:57:23.694Z,101267.22
2022-10-06T17:59:53.193Z,101257.78
2022-10-06T18:02:21.814Z,101279.34
2022-10-06T18:04:51.101Z,101260.00
2022-10-06T18:07:20.034Z,101240.56
2022-10-06T18:10:08.623Z,101256.16
2022-10-06T18:12:39.191Z,101223.47
2022-10-06T18:15:11.838Z,101249.31
2022-10-06T18:17:40.753Z,101267.97
2022-10-06T18:20:10.175Z,101259.38
2022-10-06T18:22:39.329Z,101259.00
2022-10-06T18:25:10.603Z,101237.25
2022-10-06T18:27:39.559Z,101239.78
2022-10-06T18:30:09.341Z,101257.03
2022-10-06T18:34:18.060Z,101229.59
2022-10-06T18:38:15.133Z,101238.09
2022-10-06T18:40:43.994Z,101214.91
2022-10-06T18:43:12.571Z,101241.94
2022-10-06T18:46:02.413Z,101247.41
2022-10-06T18:48:49.335Z,101211.22
2022-10-06T18:51:22.837Z,101243.50
2022-10-06T18:53:52.095Z,101240.06
2022-10-06T18:56:21.090Z,101210.72
2022-10-06T18:58:49.654Z,101233.31
2022-10-06T19:01:18.724Z,101235.22
2022-10-06T19:03:47.691Z,101177.94
2022-10-06T19:06:16.074Z,101217.31
2022-10-06T19:08:45.067Z,101215.56
2022-10-06T19:11:31.882Z,101220.81
2022-10-06T19:14:03.151Z,101178.50
2022-10-06T19:16:31.824Z,101199.34
2022-10-06T19:19:03.394Z,101173.41
2022-10-06T19:21:37.945Z,101162.25
2022-10-06T19:24:06.862Z,101163.34
2022-10-06T19:26:36.256Z,101178.94
2022-10-06T19:29:08.806Z,101176.47
2022-10-06T19:31:42.075Z,101206.56
2022-10-06T19:34:13.595Z,101205.66
2022-10-06T19:36:42.493Z,101203.03
2022-10-06T19:39:13.462Z,101197.09
2022-10-06T19:42:02.282Z,101207.66
2022-10-06T19:44:31.045Z,101154.31
2022-10-06T19:46:59.613Z,101181.94
2022-10-06T19:49:29.794Z,101156.78
2022-10-06T19:51:58.857Z,101180.94
2022-10-06T19:54:28.434Z,101129.16
2022-10-06T19:57:00.799Z,101177.09
2022-10-06T19:59:33.239Z,101177.91
2022-10-06T20:02:01.772Z,101157.03
2022-10-06T20:04:30.704Z,101173.53
2022-10-06T20:07:02.645Z,101191.03
2022-10-06T20:09:34.954Z,101177.38
2022-10-06T20:12:03.863Z,101177.38
2022-10-06T20:14:32.385Z,101155.72
2022-10-06T20:17:00.828Z,101165.66
2022-10-06T20:19:29.448Z,101121.66
2022-10-06T20:21:57.960Z,101165.09
2022-10-06T20:24:26.578Z,101154.69
2022-10-06T20:26:55.374Z,101148.88
2022-10-06T20:29:26.060Z,101169.78
2022-10-06T20:31:57.035Z,101166.53
2022-10-06T20:34:33.358Z,101130.47
2022-10-06T20:37:04.548Z,101163.53
2022-10-06T20:39:53.075Z,101114.50
2022-10-06T20:42:22.315Z,101122.41
2022-10-06T20:44:51.354Z,101159.72
2022-10-06T20:47:19.995Z,101170.19
2022-10-06T20:49:54.053Z,101151.41
2022-10-06T20:52:24.997Z,101133.28
2022-10-06T20:54:53.553Z,101137.03
2022-10-06T20:57:22.109Z,101163.03
2022-10-06T20:59:50.592Z,101137.19
2022-10-06T21:02:19.308Z,101127.75
2022-10-06T21:04:47.819Z,101125.34
2022-10-06T21:07:16.284Z,101132.34
2022-10-06T21:09:48.646Z,101110.09
2022-10-06T21:12:20.783Z,101138.94
2022-10-06T21:14:49.368Z,101140.72
2022-10-06T21:17:17.946Z,101124.31
2022-10-06T21:19:46.852Z,101104.38
2022-10-06T21:22:15.614Z,101101.75
2022-10-06T21:24:44.674Z,101101.66
2022-10-06T21:27:13.253Z,101110.41
2022-10-06T21:29:41.792Z,101102.66
2022-10-06T21:32:10.693Z,101040.34
2022-10-06T21:34:39.948Z,101069.91
2022-10-06T21:37:08.594Z,101065.63
2022-10-06T21:39:37.165Z,101072.44
2022-10-06T21:42:05.841Z,101101.97
2022-10-06T21:44:34.492Z,101062.09
2022-10-06T21:47:03.185Z,101079.41
2022-10-06T21:49:31.674Z,101086.56
2022-10-06T21:52:04.373Z,101082.16
2022-10-06T21:54:32.968Z,101084.75
2022-10-06T21:57:01.562Z,100943.19
2022-10-06T21:59:30.760Z,101046.13
2022-10-06T22:01:58.952Z,101074.63
2022-10-06T22:04:27.403Z,101034.84
2022-10-06T22:06:56.053Z,101065.13
2022-10-06T22:09:24.853Z,101070.31
2022-10-06T22:11:53.313Z,101045.22
2022-10-06T22:14:22.033Z,101055.56
2022-10-06T22:16:50.693Z,101051.06
2022-10-06T22:19:20.593Z,101064.88
2022-10-06T22:21:49.575Z,101023.28
2022-10-06T22:24:22.515Z,101055.25
2022-10-06T22:26:51.211Z,101041.13
2022-10-06T22:29:21.474Z,101045.31
2022-10-06T22:31:50.234Z,101041.88
2022-10-06T22:34:21.413Z,101057.25
2022-10-06T22:36:49.971Z,101044.28
2022-10-06T22:39:18.797Z,101057.94
2022-10-06T22:41:47.333Z,101043.94
2022-10-06T22:44:16.295Z,101029.13
2022-10-06T22:46:45.166Z,101038.47
2022-10-06T22:49:13.816Z,101045.06
2022-10-06T22:51:42.414Z,101024.03
2022-10-06T22:54:17.741Z,101034.16
2022-10-06T22:56:46.701Z,101020.19
2022-10-06T22:59:15.332Z,101027.84
2022-10-06T23:01:43.774Z,101025.13
2022-10-06T23:04:12.361Z,101039.66
2022-10-06T23:06:41.272Z,101036.94
2022-10-06T23:09:10.109Z,101013.53
2022-10-06T23:11:41.108Z,101007.91
2022-10-06T23:14:09.840Z,100999.16
2022-10-06T23:16:38.749Z,101003.44
2022-10-06T23:19:07.162Z,101006.09
2022-10-06T23:21:37.845Z,101012.41
2022-10-06T23:24:06.515Z,101023.03
2022-10-06T23:26:35.303Z,100976.31
2022-10-06T23:29:04.853Z,100995.41
2022-10-06T23:31:33.526Z,100971.34
2022-10-06T23:34:02.109Z,101003.31
2022-10-06T23:36:30.916Z,100964.56
2022-10-06T23:39:00.597Z,101014.84
2022-10-06T23:41:29.240Z,101005.44
2022-10-06T23:43:57.915Z,101012.41
2022-10-06T23:46:26.784Z,100995.06
2022-10-06T23:48:55.179Z,100989.91
2022-10-06T23:51:23.868Z,100981.31
2022-10-06T23:53:52.767Z,100965.75
2022-10-06T23:56:22.270Z,100983.81
2022-10-06T23:58:50.865Z,100965.50
